sensor_id;sensor_type;location;lat;lon;timestamp;P1;durP1;ratioP1;P2;durP2;ratioP2
67130;SDS011;54051;53.464;49.532;2022-07-29T00:00:53;8.98;;;5.72;;
67130;SDS011;54051;53.464;49.532;2022-07-29T00:03:19;8.80;;;5.77;;
67130;SDS011;54051;53.464;49.532;2022-07-29T00:05:45;8.68;;;5.72;;
67130;SDS011;54051;53.464;49.532;2022-07-29T00:08:11;8.60;;;5.47;;
67130;SDS011;54051;53.464;49.532;2022-07-29T00:10:37;11.05;;;5.93;;
67130;SDS011;54051;53.464;49.532;2022-07-29T00:13:03;10.25;;;5.60;;
67130;SDS011;54051;53.464;49.532;2022-07-29T00:15:29;7.82;;;5.35;;
67130;SDS011;54051;53.464;49.532;2022-07-29T00:17:55;8.32;;;5.70;;
67130;SDS011;54051;53.464;49.532;2022-07-29T00:20:21;10.00;;;5.70;;
67130;SDS011;54051;53.464;49.532;2022-07-29T00:22:47;9.27;;;5.55;;
67130;SDS011;54051;53.464;49.532;2022-07-29T00:25:13;8.52;;;5.95;;
67130;SDS011;54051;53.464;49.532;2022-07-29T00:27:39;9.10;;;5.60;;
67130;SDS011;54051;53.464;49.532;2022-07-29T00:30:06;9.17;;;5.80;;
67130;SDS011;54051;53.464;49.532;2022-07-29T00:32:33;8.85;;;5.70;;
67130;SDS011;54051;53.464;49.532;2022-07-29T00:34:59;8.80;;;5.63;;
67130;SDS011;54051;53.464;49.532;2022-07-29T00:37:43;8.57;;;5.70;;
67130;SDS011;54051;53.464;49.532;2022-07-29T00:40:10;8.80;;;6.30;;
67130;SDS011;54051;53.464;49.532;2022-07-29T00:42:42;9.90;;;5.95;;
67130;SDS011;54051;53.464;49.532;2022-07-29T00:45:12;9.45;;;6.30;;
67130;SDS011;54051;53.464;49.532;2022-07-29T00:47:39;10.02;;;6.47;;
67130;SDS011;54051;53.464;49.532;2022-07-29T00:50:06;9.93;;;6.63;;
67130;SDS011;54051;53.464;49.532;2022-07-29T00:52:34;9.85;;;6.28;;
67130;SDS011;54051;53.464;49.532;2022-07-29T00:55:06;9.32;;;5.97;;
67130;SDS011;54051;53.464;49.532;2022-07-29T00:57:34;10.15;;;6.53;;
67130;SDS011;54051;53.464;49.532;2022-07-29T01:00:00;11.45;;;6.47;;
67130;SDS011;54051;53.464;49.532;2022-07-29T01:02:27;10.20;;;6.80;;
67130;SDS011;54051;53.464;49.532;2022-07-29T01:04:53;10.50;;;6.70;;
67130;SDS011;54051;53.464;49.532;2022-07-29T01:07:20;9.73;;;6.63;;
67130;SDS011;54051;53.464;49.532;2022-07-29T01:09:46;10.07;;;6.43;;
67130;SDS011;54051;53.464;49.532;2022-07-29T01:12:22;11.48;;;6.85;;
67130;SDS011;54051;53.464;49.532;2022-07-29T01:14:51;9.07;;;6.25;;
67130;SDS011;54051;53.464;49.532;2022-07-29T01:26:22;9.20;;;6.15;;
67130;SDS011;54051;53.464;49.532;2022-07-29T01:29:00;9.70;;;6.30;;
67130;SDS011;54051;53.464;49.532;2022-07-29T01:31:45;11.93;;;6.60;;
67130;SDS011;54051;53.464;49.532;2022-07-29T01:34:15;9.55;;;6.15;;
67130;SDS011;54051;53.464;49.532;2022-07-29T01:36:58;11.45;;;6.50;;
67130;SDS011;54051;53.464;49.532;2022-07-29T01:39:28;11.30;;;7.10;;
67130;SDS011;54051;53.464;49.532;2022-07-29T01:41:58;10.00;;;6.40;;
67130;SDS011;54051;53.464;49.532;2022-07-29T01:44:33;11.38;;;6.68;;
67130;SDS011;54051;53.464;49.532;2022-07-29T01:47:05;8.68;;;6.38;;
67130;SDS011;54051;53.464;49.532;2022-07-29T01:49:39;11.15;;;6.75;;
67130;SDS011;54051;53.464;49.532;2022-07-29T01:52:13;10.57;;;6.53;;
67130;SDS011;54051;53.464;49.532;2022-07-29T01:54:54;10.40;;;6.55;;
67130;SDS011;54051;53.464;49.532;2022-07-29T01:57:26;9.20;;;6.70;;
67130;SDS011;54051;53.464;49.532;2022-07-29T01:59:54;10.32;;;6.43;;
67130;SDS011;54051;53.464;49.532;2022-07-29T02:02:22;10.45;;;6.93;;
67130;SDS011;54051;53.464;49.532;2022-07-29T02:04:49;11.38;;;6.60;;
67130;SDS011;54051;53.464;49.532;2022-07-29T02:07:19;9.75;;;6.15;;
67130;SDS011;54051;53.464;49.532;2022-07-29T02:09:47;10.45;;;6.53;;
67130;SDS011;54051;53.464;49.532;2022-07-29T02:12:19;10.48;;;6.20;;
67130;SDS011;54051;53.464;49.532;2022-07-29T02:14:48;10.55;;;6.55;;
67130;SDS011;54051;53.464;49.532;2022-07-29T02:17:19;10.00;;;6.70;;
67130;SDS011;54051;53.464;49.532;2022-07-29T02:19:52;13.90;;;6.50;;
67130;SDS011;54051;53.464;49.532;2022-07-29T02:22:23;9.85;;;6.70;;
67130;SDS011;54051;53.464;49.532;2022-07-29T02:24:52;11.38;;;6.82;;
67130;SDS011;54051;53.464;49.532;2022-07-29T02:27:19;10.32;;;6.72;;
67130;SDS011;54051;53.464;49.532;2022-07-29T02:29:46;10.45;;;6.80;;
67130;SDS011;54051;53.464;49.532;2022-07-29T02:32:14;9.75;;;6.82;;
67130;SDS011;54051;53.464;49.532;2022-07-29T02:34:41;11.13;;;7.00;;
67130;SDS011;54051;53.464;49.532;2022-07-29T02:37:09;11.20;;;6.35;;
67130;SDS011;54051;53.464;49.532;2022-07-29T02:39:37;10.52;;;6.65;;
67130;SDS011;54051;53.464;49.532;2022-07-29T02:42:07;10.30;;;6.18;;
67130;SDS011;54051;53.464;49.532;2022-07-29T02:44:35;10.48;;;6.57;;
67130;SDS011;54051;53.464;49.532;2022-07-29T02:50:00;8.93;;;6.32;;
67130;SDS011;54051;53.464;49.532;2022-07-29T02:55:51;9.00;;;6.32;;
67130;SDS011;54051;53.464;49.532;2022-07-29T02:58:45;10.18;;;6.00;;
67130;SDS011;54051;53.464;49.532;2022-07-29T03:01:16;9.43;;;6.40;;
67130;SDS011;54051;53.464;49.532;2022-07-29T03:03:46;11.38;;;6.72;;
67130;SDS011;54051;53.464;49.532;2022-07-29T03:06:13;9.32;;;6.47;;
67130;SDS011;54051;53.464;49.532;2022-07-29T03:08:43;9.52;;;6.50;;
67130;SDS011;54051;53.464;49.532;2022-07-29T03:11:10;9.20;;;6.43;;
67130;SDS011;54051;53.464;49.532;2022-07-29T03:13:37;9.02;;;6.30;;
67130;SDS011;54051;53.464;49.532;2022-07-29T03:16:05;10.38;;;6.90;;
67130;SDS011;54051;53.464;49.532;2022-07-29T03:18:33;9.27;;;6.22;;
67130;SDS011;54051;53.464;49.532;2022-07-29T03:21:00;8.57;;;6.53;;
67130;SDS011;54051;53.464;49.532;2022-07-29T03:23:26;8.38;;;6.25;;
67130;SDS011;54051;53.464;49.532;2022-07-29T03:25:53;8.57;;;6.05;;
67130;SDS011;54051;53.464;49.532;2022-07-29T03:28:20;11.10;;;6.78;;
67130;SDS011;54051;53.464;49.532;2022-07-29T03:30:47;8.55;;;6.47;;
67130;SDS011;54051;53.464;49.532;2022-07-29T03:33:14;9.05;;;6.20;;
67130;SDS011;54051;53.464;49.532;2022-07-29T03:38:06;10.10;;;6.55;;
67130;SDS011;54051;53.464;49.532;2022-07-29T03:40:40;10.00;;;6.22;;
67130;SDS011;54051;53.464;49.532;2022-07-29T03:43:11;9.20;;;6.22;;
67130;SDS011;54051;53.464;49.532;2022-07-29T03:45:42;9.63;;;6.68;;
67130;SDS011;54051;53.464;49.532;2022-07-29T03:48:10;12.93;;;7.10;;
67130;SDS011;54051;53.464;49.532;2022-07-29T03:50:40;10.27;;;6.85;;
67130;SDS011;54051;53.464;49.532;2022-07-29T03:53:06;8.85;;;6.20;;
67130;SDS011;54051;53.464;49.532;2022-07-29T03:55:33;8.93;;;6.13;;
67130;SDS011;54051;53.464;49.532;2022-07-29T03:58:03;8.30;;;6.20;;
67130;SDS011;54051;53.464;49.532;2022-07-29T04:00:29;9.95;;;6.72;;
67130;SDS011;54051;53.464;49.532;2022-07-29T04:02:57;9.35;;;6.65;;
67130;SDS011;54051;53.464;49.532;2022-07-29T04:05:23;9.20;;;6.78;;
67130;SDS011;54051;53.464;49.532;2022-07-29T04:10:15;11.70;;;6.55;;
67130;SDS011;54051;53.464;49.532;2022-07-29T04:12:42;9.15;;;6.47;;
67130;SDS011;54051;53.464;49.532;2022-07-29T04:15:08;11.77;;;7.00;;
67130;SDS011;54051;53.464;49.532;2022-07-29T04:17:35;10.35;;;6.93;;
67130;SDS011;54051;53.464;49.532;2022-07-29T04:20:01;10.55;;;6.85;;
67130;SDS011;54051;53.464;49.532;2022-07-29T04:22:27;13.77;;;6.80;;
67130;SDS011;54051;53.464;49.532;2022-07-29T04:24:53;10.98;;;6.70;;
67130;SDS011;54051;53.464;49.532;2022-07-29T04:27:19;10.52;;;6.65;;
67130;SDS011;54051;53.464;49.532;2022-07-29T04:29:44;10.20;;;6.85;;
67130;SDS011;54051;53.464;49.532;2022-07-29T04:32:10;10.60;;;7.05;;
67130;SDS011;54051;53.464;49.532;2022-07-29T04:34:36;11.25;;;7.13;;
67130;SDS011;54051;53.464;49.532;2022-07-29T04:37:02;11.13;;;6.80;;
67130;SDS011;54051;53.464;49.532;2022-07-29T04:39:28;15.13;;;7.28;;
67130;SDS011;54051;53.464;49.532;2022-07-29T04:41:54;9.30;;;6.63;;
67130;SDS011;54051;53.464;49.532;2022-07-29T04:44:20;13.45;;;6.70;;
67130;SDS011;54051;53.464;49.532;2022-07-29T04:46:47;9.45;;;6.30;;
67130;SDS011;54051;53.464;49.532;2022-07-29T04:49:13;11.27;;;6.32;;
67130;SDS011;54051;53.464;49.532;2022-07-29T04:51:39;10.98;;;6.53;;
67130;SDS011;54051;53.464;49.532;2022-07-29T04:54:05;12.35;;;6.60;;
67130;SDS011;54051;53.464;49.532;2022-07-29T04:56:31;9.65;;;6.30;;
67130;SDS011;54051;53.464;49.532;2022-07-29T04:58:57;9.40;;;6.65;;
67130;SDS011;54051;53.464;49.532;2022-07-29T05:01:23;8.73;;;6.40;;
67130;SDS011;54051;53.464;49.532;2022-07-29T05:03:49;9.27;;;6.68;;
67130;SDS011;54051;53.464;49.532;2022-07-29T05:06:15;10.52;;;6.70;;
67130;SDS011;54051;53.464;49.532;2022-07-29T05:08:41;8.73;;;6.70;;
67130;SDS011;54051;53.464;49.532;2022-07-29T05:11:07;10.55;;;7.03;;
67130;SDS011;54051;53.464;49.532;2022-07-29T05:13:33;11.23;;;6.60;;
67130;SDS011;54051;53.464;49.532;2022-07-29T05:15:59;9.00;;;6.72;;
67130;SDS011;54051;53.464;49.532;2022-07-29T05:18:25;11.65;;;6.78;;
67130;SDS011;54051;53.464;49.532;2022-07-29T05:20:51;9.57;;;6.90;;
67130;SDS011;54051;53.464;49.532;2022-07-29T05:23:17;9.77;;;6.88;;
67130;SDS011;54051;53.464;49.532;2022-07-29T05:25:43;10.93;;;6.60;;
67130;SDS011;54051;53.464;49.532;2022-07-29T05:28:09;12.20;;;6.68;;
67130;SDS011;54051;53.464;49.532;2022-07-29T05:30:36;11.98;;;7.07;;
67130;SDS011;54051;53.464;49.532;2022-07-29T05:33:02;9.15;;;6.50;;
67130;SDS011;54051;53.464;49.532;2022-07-29T05:35:28;10.13;;;6.70;;
67130;SDS011;54051;53.464;49.532;2022-07-29T05:37:54;12.68;;;6.30;;
67130;SDS011;54051;53.464;49.532;2022-07-29T05:40:20;12.05;;;6.93;;
67130;SDS011;54051;53.464;49.532;2022-07-29T05:42:46;9.90;;;6.57;;
67130;SDS011;54051;53.464;49.532;2022-07-29T05:45:12;8.82;;;6.65;;
67130;SDS011;54051;53.464;49.532;2022-07-29T05:47:38;10.63;;;6.55;;
67130;SDS011;54051;53.464;49.532;2022-07-29T05:50:04;12.80;;;6.93;;
67130;SDS011;54051;53.464;49.532;2022-07-29T05:52:31;11.18;;;6.97;;
67130;SDS011;54051;53.464;49.532;2022-07-29T05:54:57;10.00;;;7.05;;
67130;SDS011;54051;53.464;49.532;2022-07-29T05:57:23;10.30;;;6.80;;
67130;SDS011;54051;53.464;49.532;2022-07-29T05:59:50;10.35;;;6.72;;
67130;SDS011;54051;53.464;49.532;2022-07-29T06:02:16;12.20;;;6.60;;
67130;SDS011;54051;53.464;49.532;2022-07-29T06:04:43;9.82;;;6.68;;
67130;SDS011;54051;53.464;49.532;2022-07-29T06:07:09;14.00;;;6.72;;
67130;SDS011;54051;53.464;49.532;2022-07-29T06:09:36;11.68;;;6.70;;
67130;SDS011;54051;53.464;49.532;2022-07-29T06:12:03;9.70;;;6.63;;
67130;SDS011;54051;53.464;49.532;2022-07-29T06:14:29;11.95;;;6.93;;
67130;SDS011;54051;53.464;49.532;2022-07-29T06:16:55;11.75;;;6.43;;
67130;SDS011;54051;53.464;49.532;2022-07-29T06:19:21;9.18;;;6.85;;
67130;SDS011;54051;53.464;49.532;2022-07-29T06:21:47;11.40;;;6.90;;
67130;SDS011;54051;53.464;49.532;2022-07-29T06:24:14;10.48;;;6.50;;
67130;SDS011;54051;53.464;49.532;2022-07-29T06:26:41;9.57;;;6.78;;
67130;SDS011;54051;53.464;49.532;2022-07-29T06:29:08;12.38;;;7.15;;
67130;SDS011;54051;53.464;49.532;2022-07-29T06:31:35;14.75;;;6.65;;
67130;SDS011;54051;53.464;49.532;2022-07-29T06:34:06;12.30;;;6.75;;
67130;SDS011;54051;53.464;49.532;2022-07-29T06:36:35;13.75;;;7.18;;
67130;SDS011;54051;53.464;49.532;2022-07-29T06:39:05;11.98;;;7.30;;
67130;SDS011;54051;53.464;49.532;2022-07-29T06:41:32;12.90;;;7.20;;
67130;SDS011;54051;53.464;49.532;2022-07-29T06:43:58;9.73;;;6.88;;
67130;SDS011;54051;53.464;49.532;2022-07-29T06:46:24;10.70;;;6.90;;
67130;SDS011;54051;53.464;49.532;2022-07-29T06:48:51;10.00;;;6.82;;
67130;SDS011;54051;53.464;49.532;2022-07-29T06:51:17;12.38;;;7.38;;
67130;SDS011;54051;53.464;49.532;2022-07-29T06:53:43;17.02;;;7.50;;
67130;SDS011;54051;53.464;49.532;2022-07-29T06:56:09;15.82;;;7.80;;
67130;SDS011;54051;53.464;49.532;2022-07-29T06:58:38;13.48;;;7.00;;
67130;SDS011;54051;53.464;49.532;2022-07-29T07:01:04;11.60;;;6.75;;
67130;SDS011;54051;53.464;49.532;2022-07-29T07:03:31;12.40;;;6.72;;
67130;SDS011;54051;53.464;49.532;2022-07-29T07:05:57;9.20;;;6.30;;
67130;SDS011;54051;53.464;49.532;2022-07-29T07:08:24;11.15;;;6.53;;
67130;SDS011;54051;53.464;49.532;2022-07-29T07:10:50;9.80;;;7.00;;
67130;SDS011;54051;53.464;49.532;2022-07-29T07:13:17;9.27;;;6.20;;
67130;SDS011;54051;53.464;49.532;2022-07-29T07:15:44;9.52;;;6.10;;
67130;SDS011;54051;53.464;49.532;2022-07-29T07:18:10;8.18;;;5.78;;
67130;SDS011;54051;53.464;49.532;2022-07-29T07:20:37;11.55;;;5.50;;
67130;SDS011;54051;53.464;49.532;2022-07-29T07:23:03;9.23;;;5.22;;
67130;SDS011;54051;53.464;49.532;2022-07-29T07:25:30;8.57;;;4.90;;
67130;SDS011;54051;53.464;49.532;2022-07-29T07:27:56;7.47;;;5.50;;
67130;SDS011;54051;53.464;49.532;2022-07-29T07:30:22;7.60;;;5.70;;
67130;SDS011;54051;53.464;49.532;2022-07-29T07:32:48;9.05;;;5.60;;
67130;SDS011;54051;53.464;49.532;2022-07-29T07:35:14;10.55;;;4.88;;
67130;SDS011;54051;53.464;49.532;2022-07-29T07:37:40;9.38;;;5.30;;
67130;SDS011;54051;53.464;49.532;2022-07-29T07:40:07;10.35;;;5.30;;
67130;SDS011;54051;53.464;49.532;2022-07-29T07:42:35;8.50;;;5.53;;
67130;SDS011;54051;53.464;49.532;2022-07-29T07:45:01;9.05;;;5.80;;
67130;SDS011;54051;53.464;49.532;2022-07-29T07:47:27;9.20;;;6.10;;
67130;SDS011;54051;53.464;49.532;2022-07-29T07:49:53;8.38;;;6.22;;
67130;SDS011;54051;53.464;49.532;2022-07-29T07:52:20;10.60;;;6.18;;
67130;SDS011;54051;53.464;49.532;2022-07-29T07:54:47;9.95;;;6.20;;
67130;SDS011;54051;53.464;49.532;2022-07-29T07:57:13;9.43;;;5.93;;
67130;SDS011;54051;53.464;49.532;2022-07-29T07:59:40;9.60;;;6.05;;
67130;SDS011;54051;53.464;49.532;2022-07-29T08:02:07;9.20;;;6.05;;
67130;SDS011;54051;53.464;49.532;2022-07-29T08:04:34;7.90;;;5.90;;
67130;SDS011;54051;53.464;49.532;2022-07-29T08:07:01;9.25;;;6.22;;
67130;SDS011;54051;53.464;49.532;2022-07-29T08:09:30;8.45;;;6.38;;
67130;SDS011;54051;53.464;49.532;2022-07-29T08:11:56;8.80;;;6.35;;
67130;SDS011;54051;53.464;49.532;2022-07-29T08:14:23;11.10;;;6.43;;
67130;SDS011;54051;53.464;49.532;2022-07-29T08:16:50;9.20;;;6.13;;
67130;SDS011;54051;53.464;49.532;2022-07-29T08:19:16;9.18;;;6.68;;
67130;SDS011;54051;53.464;49.532;2022-07-29T08:21:42;9.55;;;6.68;;
67130;SDS011;54051;53.464;49.532;2022-07-29T08:24:09;10.15;;;6.75;;
67130;SDS011;54051;53.464;49.532;2022-07-29T08:26:53;10.03;;;6.67;;
67130;SDS011;54051;53.464;49.532;2022-07-29T08:29:19;9.98;;;6.60;;
67130;SDS011;54051;53.464;49.532;2022-07-29T08:31:45;9.80;;;6.60;;
67130;SDS011;54051;53.464;49.532;2022-07-29T08:36:37;9.70;;;6.72;;
67130;SDS011;54051;53.464;49.532;2022-07-29T08:39:04;11.20;;;6.43;;
67130;SDS011;54051;53.464;49.532;2022-07-29T08:41:30;11.25;;;6.75;;
67130;SDS011;54051;53.464;49.532;2022-07-29T08:43:56;10.05;;;7.05;;
67130;SDS011;54051;53.464;49.532;2022-07-29T08:48:49;9.93;;;6.60;;
67130;SDS011;54051;53.464;49.532;2022-07-29T08:51:16;10.00;;;7.30;;
67130;SDS011;54051;53.464;49.532;2022-07-29T08:53:45;12.68;;;7.10;;
67130;SDS011;54051;53.464;49.532;2022-07-29T08:56:14;10.70;;;7.53;;
67130;SDS011;54051;53.464;49.532;2022-07-29T08:58:45;10.50;;;7.00;;
67130;SDS011;54051;53.464;49.532;2022-07-29T09:01:13;10.15;;;6.97;;
67130;SDS011;54051;53.464;49.532;2022-07-29T09:03:43;10.65;;;7.30;;
67130;SDS011;54051;53.464;49.532;2022-07-29T09:06:13;11.05;;;7.25;;
67130;SDS011;54051;53.464;49.532;2022-07-29T09:08:40;10.88;;;7.18;;
67130;SDS011;54051;53.464;49.532;2022-07-29T09:11:06;11.25;;;7.18;;
67130;SDS011;54051;53.464;49.532;2022-07-29T09:13:33;9.90;;;7.35;;
67130;SDS011;54051;53.464;49.532;2022-07-29T09:15:59;10.45;;;7.00;;
67130;SDS011;54051;53.464;49.532;2022-07-29T09:21:05;10.60;;;7.05;;
67130;SDS011;54051;53.464;49.532;2022-07-29T09:26:44;10.10;;;6.90;;
67130;SDS011;54051;53.464;49.532;2022-07-29T09:29:15;11.75;;;7.10;;
67130;SDS011;54051;53.464;49.532;2022-07-29T09:31:43;8.95;;;6.90;;
67130;SDS011;54051;53.464;49.532;2022-07-29T09:34:14;9.23;;;6.40;;
67130;SDS011;54051;53.464;49.532;2022-07-29T09:36:46;10.85;;;6.97;;
67130;SDS011;54051;53.464;49.532;2022-07-29T09:39:14;9.50;;;6.93;;
67130;SDS011;54051;53.464;49.532;2022-07-29T09:41:53;9.98;;;7.05;;
67130;SDS011;54051;53.464;49.532;2022-07-29T09:44:20;11.18;;;7.05;;
67130;SDS011;54051;53.464;49.532;2022-07-29T09:46:54;10.13;;;7.28;;
67130;SDS011;54051;53.464;49.532;2022-07-29T09:49:20;10.55;;;7.40;;
67130;SDS011;54051;53.464;49.532;2022-07-29T09:51:46;8.68;;;6.45;;
67130;SDS011;54051;53.464;49.532;2022-07-29T09:54:22;11.65;;;7.57;;
67130;SDS011;54051;53.464;49.532;2022-07-29T09:56:51;10.88;;;7.47;;
67130;SDS011;54051;53.464;49.532;2022-07-29T09:59:18;11.05;;;6.78;;
67130;SDS011;54051;53.464;49.532;2022-07-29T10:01:48;10.25;;;7.20;;
67130;SDS011;54051;53.464;49.532;2022-07-29T10:04:15;11.35;;;7.22;;
67130;SDS011;54051;53.464;49.532;2022-07-29T10:06:58;10.77;;;7.05;;
67130;SDS011;54051;53.464;49.532;2022-07-29T10:09:25;11.98;;;7.30;;
67130;SDS011;54051;53.464;49.532;2022-07-29T10:14:33;10.25;;;6.68;;
67130;SDS011;54051;53.464;49.532;2022-07-29T10:17:00;11.20;;;7.28;;
67130;SDS011;54051;53.464;49.532;2022-07-29T10:19:30;11.38;;;7.55;;
67130;SDS011;54051;53.464;49.532;2022-07-29T10:22:00;9.82;;;6.85;;
67130;SDS011;54051;53.464;49.532;2022-07-29T10:24:29;10.98;;;7.18;;
67130;SDS011;54051;53.464;49.532;2022-07-29T10:26:58;11.95;;;7.18;;
67130;SDS011;54051;53.464;49.532;2022-07-29T10:29:28;12.40;;;7.28;;
67130;SDS011;54051;53.464;49.532;2022-07-29T10:40:28;10.18;;;7.05;;
67130;SDS011;54051;53.464;49.532;2022-07-29T10:43:21;10.65;;;7.22;;
67130;SDS011;54051;53.464;49.532;2022-07-29T10:45:54;9.83;;;7.13;;
67130;SDS011;54051;53.464;49.532;2022-07-29T10:48:22;11.05;;;7.57;;
67130;SDS011;54051;53.464;49.532;2022-07-29T10:50:59;12.05;;;7.65;;
67130;SDS011;54051;53.464;49.532;2022-07-29T10:56:23;12.38;;;7.85;;
67130;SDS011;54051;53.464;49.532;2022-07-29T11:01:46;10.60;;;7.25;;
67130;SDS011;54051;53.464;49.532;2022-07-29T11:04:13;11.95;;;7.43;;
67130;SDS011;54051;53.464;49.532;2022-07-29T11:09:24;12.40;;;7.85;;
67130;SDS011;54051;53.464;49.532;2022-07-29T11:11:50;11.98;;;8.07;;
67130;SDS011;54051;53.464;49.532;2022-07-29T11:14:17;10.88;;;7.60;;
67130;SDS011;54051;53.464;49.532;2022-07-29T11:17:00;11.05;;;7.70;;
67130;SDS011;54051;53.464;49.532;2022-07-29T11:19:28;11.90;;;7.63;;
67130;SDS011;54051;53.464;49.532;2022-07-29T11:21:54;10.30;;;7.57;;
67130;SDS011;54051;53.464;49.532;2022-07-29T11:24:21;13.93;;;7.57;;
67130;SDS011;54051;53.464;49.532;2022-07-29T11:29:47;12.52;;;8.07;;
67130;SDS011;54051;53.464;49.532;2022-07-29T11:32:23;11.85;;;8.32;;
67130;SDS011;54051;53.464;49.532;2022-07-29T11:49:22;10.48;;;7.32;;
67130;SDS011;54051;53.464;49.532;2022-07-29T11:51:59;12.05;;;7.70;;
67130;SDS011;54051;53.464;49.532;2022-07-29T11:54:32;12.15;;;7.68;;
67130;SDS011;54051;53.464;49.532;2022-07-29T11:57:00;11.63;;;7.35;;
67130;SDS011;54051;53.464;49.532;2022-07-29T11:59:27;12.18;;;7.72;;
67130;SDS011;54051;53.464;49.532;2022-07-29T12:01:58;11.98;;;7.63;;
67130;SDS011;54051;53.464;49.532;2022-07-29T12:04:25;12.98;;;7.72;;
67130;SDS011;54051;53.464;49.532;2022-07-29T12:06:55;12.80;;;8.30;;
67130;SDS011;54051;53.464;49.532;2022-07-29T12:09:22;10.38;;;7.55;;
67130;SDS011;54051;53.464;49.532;2022-07-29T12:11:58;11.35;;;7.40;;
67130;SDS011;54051;53.464;49.532;2022-07-29T12:14:33;11.82;;;7.63;;
67130;SDS011;54051;53.464;49.532;2022-07-29T12:16:59;12.02;;;7.95;;
67130;SDS011;54051;53.464;49.532;2022-07-29T12:19:26;11.15;;;7.47;;
67130;SDS011;54051;53.464;49.532;2022-07-29T12:21:53;11.45;;;7.60;;
67130;SDS011;54051;53.464;49.532;2022-07-29T12:24:21;10.88;;;7.60;;
67130;SDS011;54051;53.464;49.532;2022-07-29T12:26:54;12.57;;;7.63;;
67130;SDS011;54051;53.464;49.532;2022-07-29T12:29:21;11.60;;;7.78;;
67130;SDS011;54051;53.464;49.532;2022-07-29T12:31:51;13.10;;;8.35;;
67130;SDS011;54051;53.464;49.532;2022-07-29T12:34:22;12.30;;;8.23;;
67130;SDS011;54051;53.464;49.532;2022-07-29T12:36:51;12.85;;;7.80;;
67130;SDS011;54051;53.464;49.532;2022-07-29T12:39:18;11.38;;;7.80;;
67130;SDS011;54051;53.464;49.532;2022-07-29T12:41:44;12.38;;;8.05;;
67130;SDS011;54051;53.464;49.532;2022-07-29T12:44:10;10.80;;;7.38;;
67130;SDS011;54051;53.464;49.532;2022-07-29T12:46:36;11.23;;;7.97;;
67130;SDS011;54051;53.464;49.532;2022-07-29T12:49:03;11.32;;;7.70;;
67130;SDS011;54051;53.464;49.532;2022-07-29T12:51:30;11.02;;;7.65;;
67130;SDS011;54051;53.464;49.532;2022-07-29T12:54:03;13.13;;;7.90;;
67130;SDS011;54051;53.464;49.532;2022-07-29T12:56:30;11.43;;;7.97;;
67130;SDS011;54051;53.464;49.532;2022-07-29T12:58:56;11.90;;;8.52;;
67130;SDS011;54051;53.464;49.532;2022-07-29T13:01:23;12.20;;;8.20;;
67130;SDS011;54051;53.464;49.532;2022-07-29T13:03:53;11.57;;;8.20;;
67130;SDS011;54051;53.464;49.532;2022-07-29T13:06:35;13.23;;;8.23;;
67130;SDS011;54051;53.464;49.532;2022-07-29T13:14:11;12.45;;;8.93;;
67130;SDS011;54051;53.464;49.532;2022-07-29T13:17:12;12.88;;;8.43;;
67130;SDS011;54051;53.464;49.532;2022-07-29T13:19:48;10.93;;;7.90;;
67130;SDS011;54051;53.464;49.532;2022-07-29T13:22:17;14.40;;;8.50;;
67130;SDS011;54051;53.464;49.532;2022-07-29T13:24:52;13.35;;;9.30;;
67130;SDS011;54051;53.464;49.532;2022-07-29T13:27:19;14.60;;;9.82;;
67130;SDS011;54051;53.464;49.532;2022-07-29T13:29:49;13.23;;;8.48;;
67130;SDS011;54051;53.464;49.532;2022-07-29T13:32:21;12.38;;;8.40;;
67130;SDS011;54051;53.464;49.532;2022-07-29T13:34:51;12.60;;;8.30;;
67130;SDS011;54051;53.464;49.532;2022-07-29T13:37:23;12.03;;;7.87;;
67130;SDS011;54051;53.464;49.532;2022-07-29T13:39:51;11.65;;;8.20;;
67130;SDS011;54051;53.464;49.532;2022-07-29T13:42:18;11.88;;;7.95;;
67130;SDS011;54051;53.464;49.532;2022-07-29T13:44:44;12.10;;;8.20;;
67130;SDS011;54051;53.464;49.532;2022-07-29T13:47:10;11.98;;;8.23;;
67130;SDS011;54051;53.464;49.532;2022-07-29T13:49:36;11.80;;;8.52;;
67130;SDS011;54051;53.464;49.532;2022-07-29T13:52:02;12.40;;;8.15;;
67130;SDS011;54051;53.464;49.532;2022-07-29T13:54:30;12.85;;;8.45;;
67130;SDS011;54051;53.464;49.532;2022-07-29T13:56:56;12.30;;;8.18;;
67130;SDS011;54051;53.464;49.532;2022-07-29T13:59:22;12.80;;;8.50;;
67130;SDS011;54051;53.464;49.532;2022-07-29T14:01:48;11.93;;;8.02;;
67130;SDS011;54051;53.464;49.532;2022-07-29T14:04:14;11.68;;;8.07;;
67130;SDS011;54051;53.464;49.532;2022-07-29T14:06:40;13.00;;;8.10;;
67130;SDS011;54051;53.464;49.532;2022-07-29T14:09:06;13.40;;;7.90;;
67130;SDS011;54051;53.464;49.532;2022-07-29T14:11:37;11.98;;;7.47;;
67130;SDS011;54051;53.464;49.532;2022-07-29T14:14:09;11.23;;;8.10;;
67130;SDS011;54051;53.464;49.532;2022-07-29T14:16:35;13.93;;;9.40;;
67130;SDS011;54051;53.464;49.532;2022-07-29T14:19:01;17.38;;;9.60;;
67130;SDS011;54051;53.464;49.532;2022-07-29T14:21:28;19.08;;;11.27;;
67130;SDS011;54051;53.464;49.532;2022-07-29T14:23:54;23.08;;;12.30;;
67130;SDS011;54051;53.464;49.532;2022-07-29T14:26:20;24.42;;;11.48;;
67130;SDS011;54051;53.464;49.532;2022-07-29T14:28:47;18.25;;;11.68;;
67130;SDS011;54051;53.464;49.532;2022-07-29T14:31:14;22.20;;;12.60;;
67130;SDS011;54051;53.464;49.532;2022-07-29T14:33:41;18.73;;;12.18;;
67130;SDS011;54051;53.464;49.532;2022-07-29T14:36:07;16.42;;;10.48;;
67130;SDS011;54051;53.464;49.532;2022-07-29T14:38:34;13.77;;;9.48;;
67130;SDS011;54051;53.464;49.532;2022-07-29T14:41:02;15.23;;;8.13;;
67130;SDS011;54051;53.464;49.532;2022-07-29T14:43:29;11.40;;;8.20;;
67130;SDS011;54051;53.464;49.532;2022-07-29T14:45:55;12.07;;;8.43;;
67130;SDS011;54051;53.464;49.532;2022-07-29T14:48:21;13.00;;;8.23;;
67130;SDS011;54051;53.464;49.532;2022-07-29T14:50:47;13.25;;;8.38;;
67130;SDS011;54051;53.464;49.532;2022-07-29T14:53:13;14.57;;;10.05;;
67130;SDS011;54051;53.464;49.532;2022-07-29T14:55:39;16.88;;;10.68;;
67130;SDS011;54051;53.464;49.532;2022-07-29T14:58:07;17.15;;;11.90;;
67130;SDS011;54051;53.464;49.532;2022-07-29T15:00:33;17.35;;;12.10;;
67130;SDS011;54051;53.464;49.532;2022-07-29T15:02:59;23.85;;;15.82;;
67130;SDS011;54051;53.464;49.532;2022-07-29T15:05:26;27.70;;;17.83;;
67130;SDS011;54051;53.464;49.532;2022-07-29T15:07:52;30.60;;;19.60;;
67130;SDS011;54051;53.464;49.532;2022-07-29T15:12:44;27.48;;;18.17;;
67130;SDS011;54051;53.464;49.532;2022-07-29T15:15:10;20.95;;;13.95;;
67130;SDS011;54051;53.464;49.532;2022-07-29T15:17:36;17.10;;;12.68;;
67130;SDS011;54051;53.464;49.532;2022-07-29T15:20:03;14.95;;;9.82;;
67130;SDS011;54051;53.464;49.532;2022-07-29T15:22:30;16.42;;;11.60;;
67130;SDS011;54051;53.464;49.532;2022-07-29T15:24:56;12.50;;;8.60;;
67130;SDS011;54051;53.464;49.532;2022-07-29T15:27:22;13.10;;;9.43;;
67130;SDS011;54051;53.464;49.532;2022-07-29T15:29:47;12.73;;;8.30;;
67130;SDS011;54051;53.464;49.532;2022-07-29T15:32:14;11.60;;;7.47;;
67130;SDS011;54051;53.464;49.532;2022-07-29T15:34:40;14.18;;;9.45;;
67130;SDS011;54051;53.464;49.532;2022-07-29T15:37:06;12.57;;;6.88;;
67130;SDS011;54051;53.464;49.532;2022-07-29T15:39:32;11.98;;;7.40;;
67130;SDS011;54051;53.464;49.532;2022-07-29T15:41:58;13.32;;;7.32;;
67130;SDS011;54051;53.464;49.532;2022-07-29T15:44:25;12.70;;;7.60;;
67130;SDS011;54051;53.464;49.532;2022-07-29T15:46:52;12.15;;;7.85;;